Time;durP1;ratioP1;P1;durP2;ratioP2;P2;SDS_P1;SDS_P2;PMS_P1;PMS_P2;Temp;Humidity;BMP_temperature;BMP_pressure;BME280_temperature;BME280_humidity;BME280_pressure;Samples;Min_cycle;Max_cycle;Signal;HPM_P1;HPM_P2
2021/12/10 00:01:53;;;;;;;52.75;30.67;;;4.80;99.90;;;;;;5009362;28;20037;-74
2021/12/10 00:04:29;;;;;;;48.28;29.05;;;4.80;99.90;;;;;;5002778;28;20062;-74
2021/12/10 00:06:57;;;;;;;52.25;30.33;;;4.90;99.90;;;;;;5007942;28;20064;-74
2021/12/10 00:09:29;;;;;;;48.47;29.05;;;4.90;99.90;;;;;;5008830;28;20148;-74
2021/12/10 00:12:18;;;;;;;55.88;30.52;;;4.90;99.90;;;;;;5006423;28;20045;-73
2021/12/10 00:14:45;;;;;;;57.97;30.10;;;4.90;99.90;;;;;;5006289;28;20037;-73
2021/12/10 00:17:13;;;;;;;51.13;30.20;;;4.90;99.90;;;;;;4989461;28;20057;-72
2021/12/10 00:19:47;;;;;;;51.22;30.20;;;4.90;99.90;;;;;;5008029;28;20042;-73
2021/12/10 00:22:25;;;;;;;53.92;29.25;;;4.90;99.90;;;;;;5006416;28;20033;-73
2021/12/10 00:24:52;;;;;;;51.83;29.63;;;4.90;99.90;;;;;;5025871;28;20038;-73
2021/12/10 00:27:27;;;;;;;52.78;28.92;;;4.90;99.90;;;;;;5008450;28;20049;-74
2021/12/10 00:30:25;;;;;;;46.95;28.08;;;4.90;99.90;;;;;;4997330;28;20050;-73
2021/12/10 00:33:31;;;;;;;52.03;29.20;;;5.00;99.90;;;;;;5012536;28;20069;-73
2021/12/10 00:35:58;;;;;;;50.63;26.58;;;5.00;99.90;;;;;;4978802;28;20575;-73
2021/12/10 00:38:26;;;;;;;49.83;27.77;;;5.00;99.90;;;;;;4979103;28;20079;-73
2021/12/10 00:40:58;;;;;;;45.78;27.38;;;5.00;99.90;;;;;;5011635;28;20096;-73
2021/12/10 00:43:37;;;;;;;52.33;28.75;;;5.10;99.90;;;;;;4992410;28;20052;-73
2021/12/10 00:46:42;;;;;;;45.85;26.85;;;5.00;99.90;;;;;;4998641;28;20042;-73
2021/12/10 00:50:31;;;;;;;50.40;26.85;;;5.00;99.90;;;;;;5014020;28;20183;-73
2021/12/10 00:53:02;;;;;;;50.25;27.65;;;5.10;99.90;;;;;;5004038;28;20050;-73
2021/12/10 00:55:28;;;;;;;45.20;26.25;;;5.10;99.90;;;;;;5008276;28;20056;-73
2021/12/10 00:57:56;;;;;;;49.83;26.20;;;5.10;99.90;;;;;;5004700;28;20120;-73
2021/12/10 01:00:27;;;;;;;48.35;26.80;;;5.10;99.90;;;;;;5007832;28;20042;-73
2021/12/10 01:02:53;;;;;;;42.50;26.38;;;5.10;99.90;;;;;;5005491;28;20042;-74
2021/12/10 01:05:20;;;;;;;45.80;24.17;;;5.00;99.90;;;;;;5006695;28;20037;-73
2021/12/10 01:07:46;;;;;;;45.33;23.98;;;5.00;99.90;;;;;;5004478;28;20092;-73
2021/12/10 01:10:38;;;;;;;43.03;23.58;;;5.00;99.90;;;;;;5009346;28;20085;-74
2021/12/10 01:13:17;;;;;;;38.08;22.13;;;5.00;99.90;;;;;;5008448;28;20080;-73
2021/12/10 01:23:44;;;;;;;37.55;20.85;;;5.00;99.90;;;;;;4996464;28;20052;-73
2021/12/10 01:25:25;;;;;;;40.50;21.20;;;5.00;99.90;;;;;;5013136;28;20034;-73
2021/12/10 01:28:06;;;;;;;35.55;22.45;;;5.00;99.90;;;;;;4994259;28;20145;-72
2021/12/10 01:30:35;;;;;;;34.78;20.55;;;4.90;99.90;;;;;;5004282;28;20038;-73
2021/12/10 01:33:08;;;;;;;30.67;17.77;;;4.90;99.90;;;;;;5007744;28;20045;-73
2021/12/10 01:35:48;;;;;;;33.30;18.33;;;4.90;99.90;;;;;;5008194;28;20938;-73
2021/12/10 01:38:16;;;;;;;32.72;18.30;;;4.80;99.90;;;;;;5006673;28;20099;-74
2021/12/10 01:40:47;;;;;;;38.72;19.25;;;4.80;99.90;;;;;;5007323;28;20041;-73
2021/12/10 01:46:01;;;;;;;36.80;19.58;;;4.80;99.90;;;;;;5664354;22;20053;-74
2021/12/10 01:48:51;;;;;;;39.17;19.92;;;4.80;99.90;;;;;;5003791;28;20046;-73
2021/12/10 01:51:39;;;;;;;36.88;20.73;;;4.80;99.90;;;;;;5022714;28;20058;-73
2021/12/10 01:54:29;;;;;;;31.77;19.90;;;4.80;99.90;;;;;;5003073;28;20046;-73
2021/12/10 01:57:17;;;;;;;30.70;17.75;;;4.80;99.90;;;;;;4983169;28;20047;-73
2021/12/10 01:59:44;;;;;;;32.88;19.65;;;4.80;99.90;;;;;;4988332;28;20049;-73
2021/12/10 02:02:15;;;;;;;35.25;19.63;;;4.80;99.90;;;;;;4983362;28;20396;-73
2021/12/10 02:04:42;;;;;;;31.90;19.30;;;4.80;99.90;;;;;;4980317;28;20386;-74
2021/12/10 02:07:10;;;;;;;30.50;19.95;;;4.80;99.90;;;;;;4980500;28;20035;-74
2021/12/10 02:09:36;;;;;;;35.90;20.67;;;4.70;99.90;;;;;;4989095;28;20128;-74
2021/12/10 02:12:03;;;;;;;41.38;19.42;;;4.70;99.90;;;;;;4988794;28;20468;-74
2021/12/10 02:14:29;;;;;;;32.60;20.52;;;4.70;99.90;;;;;;4976270;28;20120;-74
2021/12/10 02:16:56;;;;;;;34.55;18.73;;;4.70;99.90;;;;;;4977308;28;20481;-74
2021/12/10 02:19:22;;;;;;;36.70;18.33;;;4.70;99.90;;;;;;4988041;28;20030;-74
2021/12/10 02:21:48;;;;;;;33.55;19.10;;;4.70;99.90;;;;;;4988996;28;20034;-74
2021/12/10 02:24:15;;;;;;;32.90;17.08;;;4.70;99.90;;;;;;4985047;28;20487;-74
2021/12/10 02:26:55;;;;;;;34.20;18.40;;;4.70;99.90;;;;;;4987331;28;20042;-73
2021/12/10 02:29:27;;;;;;;32.15;18.50;;;4.70;99.90;;;;;;4994368;28;20111;-73
2021/12/10 02:31:54;;;;;;;27.85;17.33;;;4.70;99.90;;;;;;4987049;28;20045;-73
2021/12/10 02:34:21;;;;;;;30.77;17.05;;;4.70;99.90;;;;;;4981394;28;20038;-73
2021/12/10 02:36:47;;;;;;;27.20;16.33;;;4.70;99.90;;;;;;4989309;28;20112;-74
2021/12/10 02:39:16;;;;;;;25.63;17.67;;;4.70;99.90;;;;;;4978574;28;20473;-73
2021/12/10 02:41:43;;;;;;;29.95;16.75;;;4.70;99.90;;;;;;4983872;28;20046;-73
2021/12/10 02:44:12;;;;;;;28.02;17.77;;;4.60;99.90;;;;;;4980964;28;20093;-73
2021/12/10 02:46:39;;;;;;;32.40;17.67;;;4.70;99.90;;;;;;4983044;28;20165;-72
2021/12/10 02:49:07;;;;;;;32.53;18.50;;;4.60;99.90;;;;;;5001766;28;20109;-74
2021/12/10 02:51:35;;;;;;;36.40;18.60;;;4.60;99.90;;;;;;4993144;28;20038;-74
2021/12/10 02:54:03;;;;;;;27.55;18.58;;;4.60;99.90;;;;;;4986644;28;20042;-74
2021/12/10 02:56:29;;;;;;;30.75;17.50;;;4.60;99.90;;;;;;4983639;28;20055;-74
2021/12/10 02:58:58;;;;;;;31.23;18.25;;;4.60;99.90;;;;;;4986990;28;20045;-74
2021/12/10 03:01:40;;;;;;;29.67;18.05;;;4.60;99.90;;;;;;4979108;28;20047;-74
2021/12/10 03:04:08;;;;;;;28.90;16.92;;;4.60;99.90;;;;;;4981785;28;20038;-73
2021/12/10 03:06:49;;;;;;;32.55;17.58;;;4.60;99.90;;;;;;4973235;28;20059;-73
2021/12/10 03:09:30;;;;;;;30.23;17.88;;;4.80;99.90;;;;;;5003123;28;20094;-73
2021/12/10 03:12:02;;;;;;;32.08;18.63;;;4.70;99.90;;;;;;5006267;28;20055;-73
2021/12/10 03:15:06;;;;;;;32.38;19.73;;;4.60;99.90;;;;;;4979014;28;20053;-73
2021/12/10 03:17:38;;;;;;;30.77;19.00;;;4.60;99.90;;;;;;4974074;28;20061;-73
2021/12/10 03:20:08;;;;;;;27.85;17.90;;;4.60;99.90;;;;;;4989492;28;20537;-73
2021/12/10 03:22:34;;;;;;;31.65;19.25;;;4.50;99.90;;;;;;4996067;28;20045;-73
2021/12/10 03:25:00;;;;;;;31.27;20.15;;;4.50;99.90;;;;;;4996844;28;20042;-73
2021/12/10 03:27:26;;;;;;;33.28;20.55;;;4.50;99.90;;;;;;4982938;28;20134;-73
2021/12/10 03:29:52;;;;;;;33.08;19.75;;;4.50;99.90;;;;;;4986660;28;20039;-73
2021/12/10 03:32:28;;;;;;;34.33;19.45;;;4.50;99.90;;;;;;4983012;28;20042;-73
2021/12/10 03:34:55;;;;;;;30.95;18.35;;;4.40;99.90;;;;;;4970617;28;20042;-72
2021/12/10 03:37:21;;;;;;;30.83;18.63;;;4.40;99.90;;;;;;4993822;28;20129;-73
2021/12/10 03:39:49;;;;;;;28.33;18.73;;;4.40;99.90;;;;;;4982725;28;20507;-73
2021/12/10 03:42:18;;;;;;;34.35;17.95;;;4.30;99.90;;;;;;5005569;28;20042;-73
2021/12/10 03:44:44;;;;;;;31.50;19.38;;;4.30;99.90;;;;;;4987882;28;20038;-73
2021/12/10 03:47:11;;;;;;;27.58;17.95;;;4.20;99.90;;;;;;4988229;28;20559;-73
2021/12/10 03:49:37;;;;;;;26.90;18.90;;;4.20;99.90;;;;;;4990452;28;20050;-73
2021/12/10 03:52:06;;;;;;;27.70;18.88;;;4.20;99.90;;;;;;4977214;28;20085;-73
2021/12/10 03:54:32;;;;;;;33.72;19.98;;;4.20;99.90;;;;;;4976902;28;20065;-74
2021/12/10 03:56:58;;;;;;;31.77;19.02;;;4.20;99.90;;;;;;4983051;28;20100;-74
2021/12/10 03:59:25;;;;;;;31.25;19.38;;;4.10;99.90;;;;;;4978554;28;20053;-74
2021/12/10 04:01:55;;;;;;;28.20;19.40;;;4.10;99.90;;;;;;4996032;28;20071;-74
2021/12/10 04:04:28;;;;;;;29.33;19.95;;;4.00;99.90;;;;;;4980503;28;20057;-74
2021/12/10 04:06:55;;;;;;;29.70;19.58;;;4.00;99.90;;;;;;4988686;28;20046;-74
2021/12/10 04:09:22;;;;;;;29.33;19.95;;;4.00;99.90;;;;;;4975786;28;20038;-74
2021/12/10 04:11:48;;;;;;;38.65;20.77;;;3.90;99.90;;;;;;4973543;28;20034;-74
2021/12/10 04:14:14;;;;;;;33.22;20.33;;;3.90;99.90;;;;;;4977568;28;20105;-74
2021/12/10 04:16:53;;;;;;;32.20;20.95;;;3.80;99.90;;;;;;4980188;28;20120;-73
2021/12/10 04:19:21;;;;;;;29.23;20.63;;;3.80;99.90;;;;;;5009263;28;20039;-73
2021/12/10 04:22:00;;;;;;;35.03;21.13;;;3.70;99.90;;;;;;4988020;28;20163;-73
2021/12/10 04:24:30;;;;;;;31.90;19.45;;;3.60;99.90;;;;;;5008209;28;20042;-73
2021/12/10 04:26:58;;;;;;;27.08;19.17;;;3.70;99.90;;;;;;4986555;28;20042;-73
2021/12/10 04:29:24;;;;;;;29.40;20.45;;;3.50;99.90;;;;;;4983139;28;20050;-73
2021/12/10 04:31:56;;;;;;;31.00;21.17;;;3.50;99.90;;;;;;4987677;28;20034;-73
2021/12/10 04:34:23;;;;;;;29.77;20.77;;;3.50;99.90;;;;;;4986776;28;20030;-72
2021/12/10 04:36:51;;;;;;;32.25;20.02;;;3.40;99.90;;;;;;4978880;28;20034;-73
2021/12/10 04:39:18;;;;;;;32.53;20.40;;;3.40;99.90;;;;;;4979632;28;20189;-73
2021/12/10 04:41:43;;;;;;;29.77;18.15;;;3.30;99.90;;;;;;4986032;28;20049;-72
2021/12/10 04:44:09;;;;;;;29.33;19.20;;;3.30;99.90;;;;;;4970675;28;20039;-72
2021/12/10 04:46:36;;;;;;;24.38;19.15;;;3.20;99.90;;;;;;4977291;28;20054;-72
2021/12/10 04:49:10;;;;;;;33.00;18.38;;;3.20;99.90;;;;;;4991272;28;20050;-73
2021/12/10 04:51:39;;;;;;;31.35;17.92;;;3.10;99.90;;;;;;4985289;28;20052;-72
2021/12/10 04:54:08;;;;;;;30.95;19.50;;;3.10;99.90;;;;;;4998083;28;20054;-72
2021/12/10 04:56:35;;;;;;;32.33;19.00;;;3.00;99.90;;;;;;4991440;28;20038;-73
2021/12/10 04:59:03;;;;;;;30.42;19.67;;;3.10;99.90;;;;;;4988934;28;20130;-73
2021/12/10 05:01:29;;;;;;;33.03;19.80;;;3.00;99.90;;;;;;4982558;28;20045;-73
2021/12/10 05:03:57;;;;;;;27.10;19.48;;;3.00;99.90;;;;;;5006810;28;20121;-73
2021/12/10 05:06:23;;;;;;;29.73;20.00;;;3.00;99.90;;;;;;4988326;28;20046;-73
2021/12/10 05:08:49;;;;;;;32.70;20.70;;;3.00;99.90;;;;;;4983286;28;20049;-73
2021/12/10 05:11:15;;;;;;;36.25;21.13;;;3.00;99.90;;;;;;4987004;28;20120;-73
2021/12/10 05:13:42;;;;;;;35.03;21.65;;;2.90;99.90;;;;;;4990075;28;20034;-73
2021/12/10 05:16:09;;;;;;;29.13;20.20;;;2.90;99.90;;;;;;5005169;28;20042;-73
2021/12/10 05:18:39;;;;;;;31.45;21.83;;;2.90;99.90;;;;;;4974954;28;20050;-73
2021/12/10 05:21:09;;;;;;;32.05;20.58;;;2.90;99.90;;;;;;4987146;28;20042;-73
2021/12/10 05:23:35;;;;;;;35.03;21.92;;;2.90;99.90;;;;;;4990556;28;20042;-73
2021/12/10 05:26:02;;;;;;;32.47;21.80;;;2.80;99.90;;;;;;4992506;28;20053;-73
2021/12/10 05:28:28;;;;;;;31.17;22.15;;;2.80;99.90;;;;;;4989887;28;20113;-73
2021/12/10 05:30:56;;;;;;;30.60;21.77;;;2.80;99.90;;;;;;4987550;28;20129;-73
2021/12/10 05:33:24;;;;;;;32.97;21.92;;;2.80;99.90;;;;;;4985042;28;20049;-73
2021/12/10 05:35:50;;;;;;;32.83;20.60;;;2.80;99.90;;;;;;4981114;28;20047;-73
2021/12/10 05:38:18;;;;;;;30.50;21.30;;;2.70;99.90;;;;;;4975961;28;20046;-73
2021/12/10 05:40:49;;;;;;;33.53;21.00;;;2.70;99.90;;;;;;4987046;28;20113;-72
2021/12/10 05:43:17;;;;;;;29.13;20.52;;;2.70;99.90;;;;;;4954455;28;20200;-73
2021/12/10 05:45:43;;;;;;;34.20;21.55;;;2.60;99.90;;;;;;4986610;28;20401;-73
2021/12/10 05:48:09;;;;;;;33.47;21.90;;;2.50;99.90;;;;;;4988674;28;20045;-73
2021/12/10 05:50:36;;;;;;;30.25;21.38;;;2.50;99.90;;;;;;4987337;28;20034;-72
2021/12/10 05:53:02;;;;;;;26.08;19.48;;;2.50;99.90;;;;;;4990303;28;20034;-73
2021/12/10 05:55:28;;;;;;;30.90;20.35;;;2.50;99.90;;;;;;4982866;28;20050;-73
2021/12/10 05:57:54;;;;;;;28.42;18.83;;;2.40;99.90;;;;;;5004225;28;20034;-72
2021/12/10 06:00:31;;;;;;;27.33;19.60;;;2.40;99.90;;;;;;4993499;28;20392;-73
2021/12/10 06:02:58;;;;;;;28.20;19.70;;;2.40;99.90;;;;;;4993505;28;20045;-72
2021/12/10 06:05:24;;;;;;;26.13;19.15;;;2.30;99.90;;;;;;4994949;28;20042;-73
2021/12/10 06:07:50;;;;;;;35.10;19.17;;;2.30;99.90;;;;;;4996775;28;20133;-73
2021/12/10 06:10:19;;;;;;;28.90;19.60;;;2.30;99.90;;;;;;4977994;28;20393;-73
2021/12/10 06:12:46;;;;;;;25.13;18.65;;;2.30;99.90;;;;;;4986389;28;20501;-73
2021/12/10 06:15:13;;;;;;;25.50;18.58;;;2.30;99.90;;;;;;4987044;28;21675;-72
2021/12/10 06:17:39;;;;;;;25.15;17.83;;;2.30;99.90;;;;;;4987704;28;20500;-74
2021/12/10 06:20:07;;;;;;;26.52;18.98;;;2.20;99.90;;;;;;4990370;28;20079;-73
2021/12/10 06:22:33;;;;;;;26.05;17.35;;;2.20;99.90;;;;;;5004266;28;20045;-72
2021/12/10 06:24:59;;;;;;;27.25;17.85;;;2.10;99.90;;;;;;4987566;28;20038;-73
2021/12/10 06:27:25;;;;;;;26.58;16.65;;;2.10;99.90;;;;;;4988031;28;20443;-72
2021/12/10 06:29:51;;;;;;;38.22;27.00;;;2.10;99.90;;;;;;4987234;28;20038;-73
2021/12/10 06:32:16;;;;;;;28.15;17.85;;;2.00;99.90;;;;;;4986427;28;22349;-73
2021/12/10 06:34:42;;;;;;;21.83;16.15;;;2.00;99.90;;;;;;4989683;28;20038;-73
2021/12/10 06:37:08;;;;;;;22.52;16.42;;;2.00;99.90;;;;;;4988030;28;20542;-73
2021/12/10 06:39:34;;;;;;;24.13;17.98;;;2.00;99.90;;;;;;4986751;28;20811;-73
2021/12/10 06:42:00;;;;;;;23.83;16.67;;;1.90;99.90;;;;;;4986824;28;20035;-73
2021/12/10 06:44:26;;;;;;;25.13;16.35;;;1.90;99.90;;;;;;4982600;28;20061;-73
2021/12/10 06:46:52;;;;;;;29.15;18.60;;;1.90;99.90;;;;;;4980058;28;20128;-73
2021/12/10 06:49:18;;;;;;;28.05;15.55;;;1.90;99.90;;;;;;4979694;28;20104;-73
2021/12/10 06:51:51;;;;;;;26.90;17.02;;;1.80;99.90;;;;;;4982689;28;20054;-74
2021/12/10 06:54:21;;;;;;;19.48;15.10;;;1.80;99.90;;;;;;4966304;28;20125;-74
2021/12/10 06:59:47;;;;;;;25.52;15.85;;;1.80;99.90;;;;;;4995295;28;20061;-73
2021/12/10 07:02:13;;;;;;;21.17;14.95;;;1.70;99.90;;;;;;4977740;28;20070;-73
2021/12/10 07:04:41;;;;;;;21.80;15.32;;;1.70;99.90;;;;;;4996171;28;20459;-73
2021/12/10 07:07:11;;;;;;;23.25;15.18;;;1.70;99.90;;;;;;4996052;28;20178;-73
2021/12/10 07:09:37;;;;;;;24.73;16.30;;;1.60;99.90;;;;;;4993838;28;20405;-72
2021/12/10 07:12:05;;;;;;;26.13;16.67;;;1.60;99.90;;;;;;4987206;28;20073;-73
2021/12/10 07:14:32;;;;;;;22.83;15.98;;;1.60;99.90;;;;;;4993567;28;20409;-73
2021/12/10 07:16:58;;;;;;;25.08;15.15;;;1.60;99.90;;;;;;4997074;28;20064;-73
2021/12/10 07:19:26;;;;;;;19.38;15.10;;;1.60;99.90;;;;;;4996480;28;20042;-73
2021/12/10 07:21:53;;;;;;;24.80;14.85;;;1.60;99.90;;;;;;4996392;28;20030;-72
2021/12/10 07:24:20;;;;;;;22.75;14.05;;;1.60;99.90;;;;;;4994497;28;20030;-73
2021/12/10 07:26:47;;;;;;;23.48;15.48;;;1.50;99.90;;;;;;4985519;28;20110;-73
2021/12/10 07:29:13;;;;;;;21.02;13.98;;;1.50;99.90;;;;;;4974239;28;20117;-73
2021/12/10 07:31:41;;;;;;;22.02;14.18;;;1.50;99.90;;;;;;4996064;28;20504;-73
2021/12/10 07:34:08;;;;;;;22.95;14.05;;;1.50;99.90;;;;;;4994992;28;20050;-73
2021/12/10 07:36:34;;;;;;;19.33;13.93;;;1.40;99.90;;;;;;4962134;28;20058;-73
2021/12/10 07:39:00;;;;;;;20.50;14.93;;;1.40;99.90;;;;;;5013226;28;20092;-73
2021/12/10 07:41:27;;;;;;;20.83;13.65;;;1.40;99.90;;;;;;4995482;28;20417;-73
2021/12/10 07:43:53;;;;;;;21.27;13.77;;;1.40;99.90;;;;;;4992059;28;20096;-73
2021/12/10 07:46:19;;;;;;;19.67;13.30;;;1.30;99.90;;;;;;4993740;28;20129;-74
2021/12/10 07:48:45;;;;;;;19.25;13.80;;;1.30;99.90;;;;;;4997316;28;20069;-73
2021/12/10 07:51:16;;;;;;;23.08;14.82;;;1.30;99.90;;;;;;4995261;28;20043;-73
2021/12/10 07:53:43;;;;;;;19.65;14.35;;;1.30;99.90;;;;;;4993859;28;20061;-72
2021/12/10 07:56:11;;;;;;;19.92;13.60;;;1.30;99.90;;;;;;4991535;28;20046;-72
2021/12/10 07:58:40;;;;;;;21.63;13.82;;;1.30;99.90;;;;;;4993752;28;20100;-73
2021/12/10 08:01:10;;;;;;;20.85;14.30;;;1.30;99.90;;;;;;4997374;28;20170;-73
2021/12/10 08:03:36;;;;;;;20.42;14.27;;;1.40;99.90;;;;;;4999899;28;20049;-73
2021/12/10 08:06:02;;;;;;;23.10;13.82;;;1.40;99.90;;;;;;4996553;28;20042;-72
2021/12/10 08:08:28;;;;;;;21.92;13.48;;;1.40;99.90;;;;;;4994934;28;20038;-74
2021/12/10 08:10:54;;;;;;;22.35;13.48;;;1.50;99.90;;;;;;4996467;28;20038;-72
2021/12/10 08:13:26;;;;;;;22.70;12.40;;;1.50;99.90;;;;;;4995847;28;20038;-73
2021/12/10 08:15:53;;;;;;;21.60;11.93;;;1.50;99.90;;;;;;4994699;28;20050;-72
2021/12/10 08:18:19;;;;;;;18.50;12.40;;;1.50;99.90;;;;;;4995262;28;20070;-73
2021/12/10 08:20:46;;;;;;;18.63;13.30;;;1.50;99.90;;;;;;4995676;28;20041;-74
2021/12/10 08:23:11;;;;;;;19.15;13.10;;;1.50;99.90;;;;;;4995894;28;20081;-72
2021/12/10 08:25:41;;;;;;;23.45;13.63;;;1.50;99.90;;;;;;4995299;28;20038;-73
2021/12/10 08:28:08;;;;;;;19.63;12.85;;;1.50;99.90;;;;;;4999215;28;20085;-72
2021/12/10 08:30:36;;;;;;;22.45;12.43;;;1.60;99.90;;;;;;4981176;28;20042;-73
2021/12/10 08:33:10;;;;;;;25.05;13.48;;;1.70;99.90;;;;;;4999721;28;20085;-73
2021/12/10 08:35:36;;;;;;;18.05;12.30;;;1.70;99.90;;;;;;5000079;28;20035;-72
2021/12/10 08:38:02;;;;;;;18.33;12.73;;;1.70;99.90;;;;;;5000053;28;20045;-74
2021/12/10 08:40:36;;;;;;;22.13;12.32;;;1.80;99.90;;;;;;4999516;28;20058;-73
2021/12/10 08:43:03;;;;;;;39.10;21.02;;;1.80;99.90;;;;;;4994475;28;20101;-73
2021/12/10 08:45:29;;;;;;;19.17;13.10;;;1.90;99.90;;;;;;4999837;28;20042;-73
2021/12/10 08:47:55;;;;;;;18.17;12.70;;;1.90;99.90;;;;;;5011657;28;20034;-73
2021/12/10 08:50:23;;;;;;;18.70;11.32;;;1.90;99.90;;;;;;4999506;28;20326;-73
2021/12/10 08:53:02;;;;;;;23.42;12.13;;;1.90;99.90;;;;;;5000202;28;20303;-73
2021/12/10 08:55:31;;;;;;;23.00;13.63;;;2.00;99.90;;;;;;5004125;28;20030;-75
2021/12/10 08:57:57;;;;;;;24.80;17.63;;;2.00;99.90;;;;;;4990251;28;20129;-74
2021/12/10 09:00:24;;;;;;;18.35;11.15;;;2.00;99.90;;;;;;4992971;28;20440;-74
2021/12/10 09:02:52;;;;;;;17.98;11.82;;;2.10;99.90;;;;;;4994913;28;20030;-73
2021/12/10 09:05:19;;;;;;;23.83;12.85;;;2.10;99.90;;;;;;4995154;28;20046;-73
2021/12/10 09:07:47;;;;;;;25.95;17.88;;;2.10;99.90;;;;;;5008089;28;20100;-73
2021/12/10 09:10:17;;;;;;;18.08;10.93;;;2.20;99.90;;;;;;4991090;28;20038;-74
2021/12/10 09:12:45;;;;;;;17.80;11.00;;;2.20;99.90;;;;;;4971227;28;20052;-74
2021/12/10 09:15:16;;;;;;;21.65;16.92;;;2.30;99.90;;;;;;4975966;28;20042;-74
2021/12/10 09:17:44;;;;;;;19.92;12.88;;;2.30;99.90;;;;;;5001108;28;20487;-73
2021/12/10 09:20:17;;;;;;;17.02;10.65;;;2.40;99.90;;;;;;4967481;28;20062;-74
2021/12/10 09:22:49;;;;;;;17.75;11.57;;;2.40;99.90;;;;;;5000446;28;20030;-73
2021/12/10 09:25:17;;;;;;;15.60;10.27;;;2.40;99.90;;;;;;4983414;28;20073;-73
2021/12/10 09:27:46;;;;;;;15.25;10.93;;;2.50;99.90;;;;;;5002954;28;20046;-73
2021/12/10 09:30:20;;;;;;;17.02;10.70;;;2.50;99.90;;;;;;5017972;28;20117;-74
2021/12/10 09:32:54;;;;;;;19.17;9.80;;;2.60;99.90;;;;;;4993479;28;20493;-73
2021/12/10 09:35:23;;;;;;;14.80;10.60;;;2.60;99.90;;;;;;4983595;28;20045;-73
2021/12/10 09:37:49;;;;;;;16.55;9.27;;;2.60;99.90;;;;;;4988385;28;20042;-74
2021/12/10 09:40:24;;;;;;;16.20;10.57;;;2.80;99.90;;;;;;4990997;28;20070;-73
2021/12/10 09:42:50;;;;;;;16.83;8.98;;;2.80;99.90;;;;;;4986977;28;20050;-74
2021/12/10 09:45:27;;;;;;;12.25;9.15;;;2.90;99.90;;;;;;5006251;28;20043;-73
2021/12/10 09:47:53;;;;;;;15.43;8.98;;;2.90;99.90;;;;;;4994569;28;20125;-73
2021/12/10 09:50:22;;;;;;;16.42;9.57;;;3.00;99.90;;;;;;4986387;28;20043;-74
2021/12/10 09:52:49;;;;;;;13.05;9.15;;;3.10;99.90;;;;;;4986816;28;20047;-73
2021/12/10 09:55:17;;;;;;;11.43;8.07;;;3.10;99.90;;;;;;4988835;28;20046;-73
2021/12/10 09:57:47;;;;;;;12.00;8.63;;;3.10;99.90;;;;;;4992208;28;20046;-73
2021/12/10 10:00:32;;;;;;;10.40;7.95;;;3.20;99.90;;;;;;4995557;28;20117;-73
2021/12/10 10:03:00;;;;;;;12.73;7.68;;;3.20;99.90;;;;;;4991386;28;20089;-73
2021/12/10 10:05:28;;;;;;;13.38;7.88;;;3.30;99.90;;;;;;4992137;28;20034;-73
2021/12/10 10:08:00;;;;;;;12.68;7.97;;;3.30;99.90;;;;;;4992285;28;20125;-73
2021/12/10 10:10:28;;;;;;;11.23;7.45;;;3.40;99.90;;;;;;4974539;28;20507;-73
2021/12/10 10:12:55;;;;;;;11.93;7.90;;;3.40;99.90;;;;;;4992992;28;20050;-73
2021/12/10 10:15:29;;;;;;;12.55;7.45;;;3.50;99.90;;;;;;4987471;28;20137;-73
2021/12/10 10:17:58;;;;;;;14.45;8.18;;;3.60;99.90;;;;;;4990898;28;20042;-73
2021/12/10 10:20:27;;;;;;;14.10;7.75;;;3.60;99.90;;;;;;5003275;28;20121;-73
2021/12/10 10:22:52;;;;;;;11.48;8.07;;;3.70;99.90;;;;;;4991256;28;20050;-74
2021/12/10 10:25:22;;;;;;;11.13;7.68;;;3.70;99.90;;;;;;4990646;28;20042;-74
2021/12/10 10:27:48;;;;;;;14.85;7.22;;;3.80;99.90;;;;;;4985313;28;20042;-74
2021/12/10 10:30:17;;;;;;;12.07;7.00;;;3.80;99.90;;;;;;4985613;28;20105;-74
2021/12/10 10:32:46;;;;;;;13.13;7.32;;;3.90;99.90;;;;;;4989043;28;20053;-74
2021/12/10 10:35:21;;;;;;;11.32;6.97;;;4.00;99.90;;;;;;4988312;28;20045;-74
2021/12/10 10:37:47;;;;;;;10.73;6.57;;;4.00;99.90;;;;;;4996217;28;20099;-73
2021/12/10 10:40:18;;;;;;;11.40;6.70;;;4.10;99.90;;;;;;4999668;28;20045;-73
2021/12/10 10:42:44;;;;;;;11.70;6.43;;;4.10;99.90;;;;;;4990875;28;20084;-73
2021/12/10 10:45:17;;;;;;;8.75;6.40;;;4.20;99.90;;;;;;4989210;28;20039;-73
2021/12/10 10:47:44;;;;;;;12.10;6.50;;;4.20;99.90;;;;;;4990172;28;20125;-73
2021/12/10 10:50:13;;;;;;;12.32;6.32;;;4.30;99.90;;;;;;4988781;28;20053;-73
2021/12/10 10:52:43;;;;;;;11.15;6.53;;;4.40;99.90;;;;;;4990306;28;20053;-73
2021/12/10 10:55:12;;;;;;;12.77;6.35;;;4.40;99.90;;;;;;4993433;28;20049;-73
2021/12/10 10:57:54;;;;;;;12.00;6.18;;;4.40;99.90;;;;;;4972301;28;20049;-73
2021/12/10 11:00:32;;;;;;;9.82;6.30;;;4.50;99.90;;;;;;4989263;28;20035;-73
2021/12/10 11:03:06;;;;;;;11.32;6.18;;;4.60;99.90;;;;;;4989005;28;20034;-73
2021/12/10 11:05:33;;;;;;;9.73;5.75;;;4.70;99.90;;;;;;5004517;28;20046;-74
2021/12/10 11:08:01;;;;;;;9.88;6.47;;;4.80;99.90;;;;;;4994490;28;20421;-73
2021/12/10 11:10:40;;;;;;;10.85;5.55;;;4.80;99.90;;;;;;4982418;28;20042;-73
2021/12/10 11:13:13;;;;;;;8.43;5.72;;;4.90;99.90;;;;;;4985526;28;20042;-73
2021/12/10 11:15:52;;;;;;;;;;;5.00;99.90;;;;;;4986254;28;20077;-73
2021/12/10 11:18:18;;;;;;;9.02;5.55;;;5.10;99.90;;;;;;4990288;28;19927;-73
2021/12/10 11:20:45;;;;;;;9.60;5.40;;;5.20;99.90;;;;;;4987977;28;20046;-73
2021/12/10 11:23:12;;;;;;;8.40;4.88;;;5.30;99.90;;;;;;4989823;28;20042;-73
2021/12/10 11:25:49;;;;;;;9.35;5.22;;;5.40;99.90;;;;;;5000815;28;20124;-73
2021/12/10 11:28:28;;;;;;;7.97;4.72;;;5.50;99.90;;;;;;4984169;28;20054;-73
2021/12/10 11:31:03;;;;;;;10.00;4.43;;;5.60;99.90;;;;;;4996231;28;20053;-73
2021/12/10 11:33:36;;;;;;;8.50;4.60;;;5.60;99.90;;;;;;4997223;28;20088;-73
2021/12/10 11:36:09;;;;;;;5.82;3.78;;;5.70;99.90;;;;;;4983576;28;20124;-74
2021/12/10 11:38:36;;;;;;;8.32;4.60;;;5.80;99.90;;;;;;4996599;28;20129;-74
2021/12/10 11:41:23;;;;;;;9.45;4.68;;;5.90;99.90;;;;;;4983036;28;20042;-75
2021/12/10 11:47:02;;;;;;;9.20;4.47;;;6.10;99.90;;;;;;4998163;28;20179;-74
2021/12/10 11:49:40;;;;;;;13.27;5.30;;;6.10;99.90;;;;;;4979081;28;20050;-74
2021/12/10 11:52:08;;;;;;;7.28;4.05;;;6.10;99.90;;;;;;4980683;28;20101;-74
2021/12/10 11:54:41;;;;;;;6.28;3.85;;;6.20;99.90;;;;;;4982913;28;20137;-74
2021/12/10 11:57:26;;;;;;;9.80;4.78;;;6.20;99.90;;;;;;4983011;28;20050;-74
2021/12/10 12:00:16;;;;;;;6.47;3.72;;;6.30;99.90;;;;;;4982622;28;20126;-74
2021/12/10 12:02:52;;;;;;;8.43;4.28;;;6.30;99.90;;;;;;4986311;28;20050;-74
2021/12/10 12:05:24;;;;;;;9.75;3.80;;;6.40;99.90;;;;;;4986908;28;20042;-74
2021/12/10 12:07:54;;;;;;;7.50;3.97;;;6.40;99.90;;;;;;4987489;28;20050;-74
2021/12/10 12:10:31;;;;;;;7.68;3.67;;;6.40;99.90;;;;;;4985325;28;20062;-74
2021/12/10 12:15:50;;;;;;;9.57;3.70;;;6.40;99.90;;;;;;5001933;28;20050;-73
2021/12/10 12:18:23;;;;;;;6.78;3.42;;;6.60;99.90;;;;;;4998691;28;20145;-73
2021/12/10 12:20:52;;;;;;;10.65;4.15;;;6.60;99.90;;;;;;4986292;28;20042;-73
2021/12/10 12:26:09;;;;;;;9.07;3.72;;;6.70;99.90;;;;;;4984635;28;20038;-74
2021/12/10 12:28:38;;;;;;;9.38;3.25;;;6.80;99.90;;;;;;4986957;28;20046;-73
2021/12/10 12:31:09;;;;;;;8.05;3.13;;;6.90;99.90;;;;;;4984223;28;20441;-73
2021/12/10 12:33:57;;;;;;;9.02;3.25;;;6.80;99.90;;;;;;4981381;28;20539;-73
2021/12/10 12:36:27;;;;;;;7.03;2.92;;;6.90;99.90;;;;;;4984167;28;20129;-73
2021/12/10 12:38:54;;;;;;;6.50;2.83;;;6.90;99.90;;;;;;4983721;28;20054;-73
2021/12/10 12:41:32;;;;;;;8.00;3.10;;;6.90;99.90;;;;;;4987568;28;20053;-74
2021/12/10 12:44:16;;;;;;;10.40;3.55;;;6.90;99.90;;;;;;4984608;28;20046;-73
2021/12/10 12:47:12;;;;;;;7.00;2.80;;;6.90;99.90;;;;;;4985631;28;20046;-73
2021/12/10 12:49:47;;;;;;;8.60;3.13;;;7.10;99.90;;;;;;4984398;28;20073;-74
2021/12/10 12:52:19;;;;;;;7.35;3.20;;;7.20;99.90;;;;;;4982784;28;20070;-74
2021/12/10 12:55:03;;;;;;;9.38;3.22;;;7.30;99.90;;;;;;4984316;28;20050;-74
2021/12/10 12:57:48;;;;;;;6.80;2.88;;;7.30;99.90;;;;;;4981284;28;20405;-73
2021/12/10 13:00:36;;;;;;;7.10;2.80;;;7.40;99.90;;;;;;4986729;28;20042;-73
2021/12/10 13:03:08;;;;;;;7.50;3.13;;;7.50;99.90;;;;;;4986329;28;20030;-73
2021/12/10 13:05:44;;;;;;;6.50;2.95;;;7.60;99.90;;;;;;4980784;28;20050;-73
2021/12/10 13:08:13;;;;;;;7.38;2.75;;;7.70;99.90;;;;;;4981317;28;20038;-73
2021/12/10 13:10:42;;;;;;;7.07;2.60;;;7.80;99.90;;;;;;5003505;28;20049;-73
2021/12/10 13:13:13;;;;;;;7.75;3.00;;;8.10;99.90;;;;;;4997681;28;20053;-73
2021/12/10 13:15:46;;;;;;;7.57;3.10;;;8.40;99.90;;;;;;5001233;28;20528;-73
2021/12/10 13:18:13;;;;;;;;;;;8.70;98.80;;;;;;4996096;28;20057;-74
2021/12/10 13:20:42;;;;;;;6.15;3.00;;;9.00;97.30;;;;;;5002587;28;19964;-73